createdAt,value
2017-03-16T00:00:41.348Z,1022.91
2017-03-16T00:01:41.353Z,1022.89
2017-03-16T00:02:41.357Z,1022.88
2017-03-16T00:03:41.364Z,1022.89
2017-03-16T00:04:41.419Z,1022.88
2017-03-16T00:05:41.424Z,1022.85
2017-03-16T00:06:41.381Z,1022.85
2017-03-16T00:07:41.384Z,1022.89
2017-03-16T00:08:41.390Z,1022.87
2017-03-16T00:09:41.396Z,1022.89
2017-03-16T00:10:41.402Z,1022.85
2017-03-16T00:11:41.410Z,1022.87
2017-03-16T00:12:41.414Z,1022.86
2017-03-16T00:13:41.468Z,1022.83
2017-03-16T00:14:41.424Z,1022.83
2017-03-16T00:15:41.430Z,1022.85
2017-03-16T00:16:41.436Z,1022.81
2017-03-16T00:17:41.442Z,1022.74
2017-03-16T00:18:41.447Z,1022.74
2017-03-16T00:19:41.451Z,1022.72
2017-03-16T00:20:41.457Z,1022.73
2017-03-16T00:21:41.464Z,1022.71
2017-03-16T00:22:41.469Z,1022.73
2017-03-16T00:23:41.526Z,1022.67
2017-03-16T00:24:41.481Z,1022.67
2017-03-16T00:25:41.486Z,1022.67
2017-03-16T00:26:41.491Z,1022.67
2017-03-16T00:27:41.496Z,1022.62
2017-03-16T00:28:41.503Z,1022.62
2017-03-16T00:29:41.810Z,1022.62
2017-03-16T00:30:41.513Z,1022.57
2017-03-16T00:31:41.520Z,1022.56
2017-03-16T00:32:41.575Z,1022.58
2017-03-16T00:33:41.582Z,1022.62
2017-03-16T00:34:41.536Z,1022.61
2017-03-16T00:35:41.590Z,1022.6
2017-03-16T00:36:41.548Z,1022.6
2017-03-16T00:37:41.552Z,1022.59
2017-03-16T00:38:41.559Z,1022.56
2017-03-16T00:39:41.565Z,1022.57
2017-03-16T00:40:41.569Z,1022.56
2017-03-16T00:41:41.575Z,1022.56
2017-03-16T00:42:41.580Z,1022.54
2017-03-16T00:43:41.586Z,1022.54
2017-03-16T00:44:41.592Z,1022.49
2017-03-16T00:45:41.597Z,1022.53
2017-03-16T00:46:41.603Z,1022.47
2017-03-16T00:47:41.608Z,1022.51
2017-03-16T00:48:41.614Z,1022.49
2017-03-16T00:49:41.618Z,1022.51
2017-03-16T00:50:41.624Z,1022.45
2017-03-16T00:51:41.630Z,1022.5
2017-03-16T00:52:41.635Z,1022.45
2017-03-16T00:53:41.640Z,1022.43
2017-03-16T00:54:41.647Z,1022.46
2017-03-16T00:55:41.652Z,1022.41
2017-03-16T00:56:41.656Z,1022.4
2017-03-16T00:57:41.663Z,1022.4
2017-03-16T00:58:41.668Z,1022.38
2017-03-16T00:59:41.673Z,1022.37
2017-03-16T01:00:41.680Z,1022.36
2017-03-16T01:01:41.735Z,1022.39
2017-03-16T01:02:41.691Z,1022.36
2017-03-16T01:03:41.695Z,1022.41
2017-03-16T01:04:41.701Z,1022.35
2017-03-16T01:05:41.707Z,1022.4
2017-03-16T01:06:41.711Z,1022.34
2017-03-16T01:07:41.717Z,1022.37
2017-03-16T01:08:41.723Z,1022.37
2017-03-16T01:09:41.729Z,1022.4
2017-03-16T01:10:41.732Z,1022.39
2017-03-16T01:11:41.739Z,1022.37
2017-03-16T01:12:41.745Z,1022.35
2017-03-16T01:13:41.800Z,1022.38
2017-03-16T01:14:41.757Z,1022.35
2017-03-16T01:15:41.760Z,1022.32
2017-03-16T01:16:41.767Z,1022.29
2017-03-16T01:17:41.773Z,1022.25
2017-03-16T01:18:41.779Z,1022.29
2017-03-16T01:19:41.834Z,1022.25
2017-03-16T01:20:41.790Z,1022.23
2017-03-16T01:21:41.845Z,1022.21
2017-03-16T01:22:41.850Z,1022.22
2017-03-16T01:23:41.806Z,1022.25
2017-03-16T01:24:41.813Z,1022.23
2017-03-16T01:25:41.867Z,1022.22
2017-03-16T01:26:41.877Z,1022.16
2017-03-16T01:27:41.829Z,1022.15
2017-03-16T01:28:41.833Z,1022.17
2017-03-16T01:29:41.839Z,1022.14
2017-03-16T01:30:41.845Z,1022.1
2017-03-16T01:31:41.852Z,1022.09
2017-03-16T01:32:41.855Z,1022.04
2017-03-16T01:33:41.861Z,1022.03
2017-03-16T01:34:41.868Z,1022.01
2017-03-16T01:35:41.922Z,1022
2017-03-16T01:36:41.882Z,1021.93
2017-03-16T01:37:41.933Z,1021.93
2017-03-16T01:38:41.893Z,1021.89
2017-03-16T01:39:41.894Z,1021.89
2017-03-16T01:40:41.901Z,1021.88
2017-03-16T01:41:41.906Z,1021.89
2017-03-16T01:42:41.911Z,1021.86
2017-03-16T01:43:41.916Z,1021.86
2017-03-16T01:44:41.922Z,1021.84
2017-03-16T01:45:41.927Z,1021.83
2017-03-16T01:46:41.934Z,1021.83
2017-03-16T01:47:41.939Z,1021.82
2017-03-16T01:48:41.944Z,1021.84
2017-03-16T01:49:41.951Z,1021.78
2017-03-16T01:50:42.005Z,1021.78
2017-03-16T01:51:41.961Z,1021.75
2017-03-16T01:52:41.968Z,1021.73
2017-03-16T01:53:41.971Z,1021.71
2017-03-16T01:54:41.977Z,1021.7
2017-03-16T01:55:41.983Z,1021.69
2017-03-16T01:56:41.990Z,1021.68
2017-03-16T01:57:41.995Z,1021.72
2017-03-16T01:58:42.001Z,1021.66
2017-03-16T01:59:42.006Z,1021.7
2017-03-16T02:00:42.011Z,1021.63
2017-03-16T02:01:42.017Z,1021.66
2017-03-16T02:02:42.023Z,1021.65
2017-03-16T02:03:42.029Z,1021.65
2017-03-16T02:04:42.034Z,1021.65
2017-03-16T02:05:42.040Z,1021.67
2017-03-16T02:06:42.046Z,1021.61
2017-03-16T02:07:42.051Z,1021.66
2017-03-16T02:08:42.055Z,1021.63
2017-03-16T02:09:42.062Z,1021.62
2017-03-16T02:10:42.067Z,1021.62
2017-03-16T02:11:42.073Z,1021.64
2017-03-16T02:12:42.127Z,1021.59
2017-03-16T02:13:42.083Z,1021.58
2017-03-16T02:14:42.090Z,1021.56
2017-03-16T02:15:42.096Z,1021.58
2017-03-16T02:16:42.101Z,1021.55
2017-03-16T02:17:42.155Z,1021.51
2017-03-16T02:18:42.112Z,1021.51
2017-03-16T02:19:42.116Z,1021.48
2017-03-16T02:20:42.172Z,1021.46
2017-03-16T02:21:42.128Z,1021.44
2017-03-16T02:22:42.134Z,1021.43
2017-03-16T02:23:42.135Z,1021.42
2017-03-16T02:24:42.144Z,1021.4
2017-03-16T02:25:42.150Z,1021.4
2017-03-16T02:26:42.206Z,1021.41
2017-03-16T02:27:42.161Z,1021.38
2017-03-16T02:28:42.166Z,1021.4
2017-03-16T02:29:42.173Z,1021.38
2017-03-16T02:30:42.177Z,1021.36
2017-03-16T02:31:42.183Z,1021.3
2017-03-16T02:32:42.239Z,1021.32
2017-03-16T02:33:42.194Z,1021.26
2017-03-16T02:34:42.199Z,1021.27
2017-03-16T02:35:42.204Z,1021.28
2017-03-16T02:36:42.210Z,1021.26
2017-03-16T02:37:42.215Z,1021.27
2017-03-16T02:38:42.221Z,1021.27
2017-03-16T02:39:42.227Z,1021.24
2017-03-16T02:40:42.234Z,1021.29
2017-03-16T02:41:42.238Z,1021.3
2017-03-16T02:42:42.244Z,1021.3
2017-03-16T02:43:42.251Z,1021.31
2017-03-16T02:44:42.305Z,1021.33
2017-03-16T02:45:42.260Z,1021.3
2017-03-16T02:46:42.315Z,1021.28
2017-03-16T02:47:42.323Z,1021.29
2017-03-16T02:48:42.277Z,1021.29
2017-03-16T02:49:42.333Z,1021.32
2017-03-16T02:50:42.339Z,1021.33
2017-03-16T02:51:42.345Z,1021.35
2017-03-16T02:52:42.299Z,1021.34
2017-03-16T02:53:42.354Z,1021.34
2017-03-16T02:54:42.312Z,1021.35
2017-03-16T02:55:42.318Z,1021.32
2017-03-16T02:56:42.321Z,1021.3
2017-03-16T02:57:42.327Z,1021.32
2017-03-16T02:58:42.333Z,1021.28
2017-03-16T02:59:42.341Z,1021.31
2017-03-16T03:00:42.395Z,1021.28
2017-03-16T03:01:42.350Z,1021.27
2017-03-16T03:02:42.355Z,1021.28
2017-03-16T03:03:42.361Z,1021.23
2017-03-16T03:04:42.416Z,1021.24
2017-03-16T03:05:42.370Z,1021.23
2017-03-16T03:06:42.377Z,1021.22
2017-03-16T03:07:42.381Z,1021.23
2017-03-16T03:08:42.389Z,1021.22
2017-03-16T03:09:42.394Z,1021.2
2017-03-16T03:10:42.401Z,1021.24
2017-03-16T03:11:42.405Z,1021.22
2017-03-16T03:12:42.410Z,1021.19
2017-03-16T03:13:42.416Z,1021.18
2017-03-16T03:14:42.420Z,1021.17
2017-03-16T03:15:42.428Z,1021.14
2017-03-16T03:16:42.431Z,1021.14
2017-03-16T03:17:42.489Z,1021.1
2017-03-16T03:18:42.491Z,1021.09
2017-03-16T03:19:42.448Z,1021.05
2017-03-16T03:20:42.454Z,1021.09
2017-03-16T03:21:42.461Z,1021.05
2017-03-16T03:22:42.466Z,1021.02
2017-03-16T03:23:42.520Z,1021.03
2017-03-16T03:24:42.477Z,1021.04
2017-03-16T03:25:42.532Z,1020.99
2017-03-16T03:26:42.539Z,1020.95
2017-03-16T03:27:42.493Z,1020.97
2017-03-16T03:28:42.501Z,1020.95
2017-03-16T03:29:42.503Z,1020.95
2017-03-16T03:30:42.511Z,1020.9
2017-03-16T03:31:42.565Z,1020.94
2017-03-16T03:32:42.521Z,1020.93
2017-03-16T03:33:42.528Z,1020.93
2017-03-16T03:34:42.532Z,1020.91
2017-03-16T03:35:42.540Z,1020.89
2017-03-16T03:36:42.544Z,1020.9
2017-03-16T03:37:42.550Z,1020.93
2017-03-16T03:38:42.555Z,1020.91
2017-03-16T03:39:42.560Z,1020.94
2017-03-16T03:40:42.615Z,1020.96
2017-03-16T03:41:42.572Z,1020.95
2017-03-16T03:42:42.577Z,1020.97
2017-03-16T03:43:42.581Z,1020.97
2017-03-16T03:44:42.586Z,1020.99
2017-03-16T03:45:42.595Z,1020.95
2017-03-16T03:46:42.600Z,1020.95
2017-03-16T03:47:42.604Z,1020.96
2017-03-16T03:48:42.610Z,1021
2017-03-16T03:49:42.666Z,1020.98
2017-03-16T03:50:42.625Z,1021
2017-03-16T03:51:42.627Z,1021
2017-03-16T03:52:42.633Z,1020.99
2017-03-16T03:53:42.637Z,1021.04
2017-03-16T03:54:42.666Z,1021.04
2017-03-16T03:55:42.648Z,1021.09
2017-03-16T03:56:42.656Z,1021.07
2017-03-16T03:57:42.710Z,1021.08
2017-03-16T03:58:42.716Z,1021.12
2017-03-16T03:59:42.720Z,1021.11
2017-03-16T04:00:42.677Z,1021.05
2017-03-16T04:01:42.683Z,1021.04
2017-03-16T04:02:42.736Z,1021.05
2017-03-16T04:03:42.743Z,1021.05
2017-03-16T04:04:42.699Z,1021.02
2017-03-16T04:05:42.703Z,1021.02
2017-03-16T04:06:42.709Z,1020.97
2017-03-16T04:07:42.715Z,1020.95
2017-03-16T04:08:42.722Z,1020.98
2017-03-16T04:09:42.726Z,1020.96
2017-03-16T04:10:42.730Z,1020.99
2017-03-16T04:11:42.737Z,1020.99
2017-03-16T04:12:42.742Z,1020.99
2017-03-16T04:13:42.748Z,1020.95
2017-03-16T04:14:42.753Z,1020.99
2017-03-16T04:15:42.759Z,1021
2017-03-16T04:16:42.813Z,1020.99
2017-03-16T04:17:42.820Z,1021.01
2017-03-16T04:18:42.775Z,1021.04
2017-03-16T04:19:42.780Z,1021.03
2017-03-16T04:20:42.792Z,1021
2017-03-16T04:21:42.843Z,1020.99
2017-03-16T04:22:42.797Z,1021.01
2017-03-16T04:23:42.801Z,1021.03
2017-03-16T04:24:42.859Z,1021.01
2017-03-16T04:25:42.813Z,1021
2017-03-16T04:26:42.822Z,1021.04
2017-03-16T04:27:42.875Z,1021.01
2017-03-16T04:28:42.829Z,1021.05
2017-03-16T04:29:42.836Z,1021.01
2017-03-16T04:30:42.840Z,1020.99
2017-03-16T04:31:42.845Z,1021.02
2017-03-16T04:32:42.852Z,1021.03
2017-03-16T04:33:42.856Z,1021.04
2017-03-16T04:34:42.912Z,1021.02
2017-03-16T04:35:42.868Z,1020.98
2017-03-16T04:36:42.875Z,1021
2017-03-16T04:37:42.928Z,1020.98
2017-03-16T04:38:42.934Z,1020.98
2017-03-16T04:39:42.888Z,1020.97
2017-03-16T04:40:42.896Z,1020.97
2017-03-16T04:41:42.951Z,1020.97
2017-03-16T04:42:42.955Z,1020.95
2017-03-16T04:43:42.910Z,1020.99
2017-03-16T04:44:42.916Z,1020.94
2017-03-16T04:45:42.973Z,1020.96
2017-03-16T04:46:42.928Z,1020.97
2017-03-16T04:47:42.932Z,1020.96
2017-03-16T04:48:42.939Z,1020.98
2017-03-16T04:49:42.944Z,1020.95
2017-03-16T04:50:42.999Z,1020.97
2017-03-16T04:51:42.953Z,1020.92
2017-03-16T04:52:42.961Z,1020.96
2017-03-16T04:53:43.016Z,1020.93
2017-03-16T04:54:42.972Z,1020.92
2017-03-16T04:55:42.975Z,1020.92
2017-03-16T04:56:42.982Z,1020.91
2017-03-16T04:57:42.988Z,1020.95
2017-03-16T04:58:43.043Z,1020.95
2017-03-16T04:59:42.998Z,1020.94
2017-03-16T05:00:43.003Z,1020.92
2017-03-16T05:01:43.008Z,1020.89
2017-03-16T05:02:43.016Z,1020.88
2017-03-16T05:03:43.022Z,1020.9
2017-03-16T05:04:43.024Z,1020.88
2017-03-16T05:05:43.030Z,1020.88
2017-03-16T05:06:43.036Z,1020.88
2017-03-16T05:07:43.042Z,1020.84
2017-03-16T05:08:43.048Z,1020.87
2017-03-16T05:09:43.104Z,1020.86
2017-03-16T05:10:43.059Z,1020.86
2017-03-16T05:11:43.062Z,1020.85
2017-03-16T05:12:43.070Z,1020.82
2017-03-16T05:13:43.074Z,1020.83
2017-03-16T05:14:43.081Z,1020.83
2017-03-16T05:15:43.085Z,1020.81
2017-03-16T05:16:43.092Z,1020.84
2017-03-16T05:17:43.098Z,1020.82
2017-03-16T05:18:43.102Z,1020.8
2017-03-16T05:19:43.107Z,1020.8
2017-03-16T05:20:43.114Z,1020.83
2017-03-16T05:21:43.118Z,1020.77
2017-03-16T05:22:43.173Z,1020.81
2017-03-16T05:23:43.130Z,1020.77
2017-03-16T05:24:43.135Z,1020.78
2017-03-16T05:25:43.190Z,1020.76
2017-03-16T05:26:43.144Z,1020.77
2017-03-16T05:27:43.149Z,1020.74
2017-03-16T05:28:43.206Z,1020.74
2017-03-16T05:29:43.211Z,1020.7
2017-03-16T05:30:43.167Z,1020.7
2017-03-16T05:31:43.172Z,1020.74
2017-03-16T05:32:43.178Z,1020.7
2017-03-16T05:33:43.183Z,1020.74
2017-03-16T05:34:43.189Z,1020.74
2017-03-16T05:35:43.194Z,1020.72
2017-03-16T05:36:43.200Z,1020.71
2017-03-16T05:37:43.205Z,1020.68
2017-03-16T05:38:43.209Z,1020.69
2017-03-16T05:39:43.217Z,1020.68
2017-03-16T05:40:43.221Z,1020.69
2017-03-16T05:41:43.226Z,1020.65
2017-03-16T05:42:43.234Z,1020.64
2017-03-16T05:43:43.238Z,1020.68
2017-03-16T05:44:43.242Z,1020.65
2017-03-16T05:45:43.248Z,1020.68
2017-03-16T05:46:43.904Z,1020.68
2017-03-16T05:47:43.292Z,1020.68
2017-03-16T05:48:43.264Z,1020.72
2017-03-16T05:49:43.269Z,1020.74
2017-03-16T05:50:43.277Z,1020.73
2017-03-16T05:51:43.279Z,1020.76
2017-03-16T05:52:43.285Z,1020.73
2017-03-16T05:53:43.290Z,1020.76
2017-03-16T05:54:43.296Z,1020.76
2017-03-16T05:55:43.301Z,1020.77
2017-03-16T05:56:43.357Z,1020.72
2017-03-16T05:57:43.313Z,1020.73
2017-03-16T05:58:43.318Z,1020.72
2017-03-16T05:59:43.324Z,1020.75
2017-03-16T06:00:43.329Z,1020.73
2017-03-16T06:01:43.335Z,1020.76
2017-03-16T06:02:43.389Z,1020.78
2017-03-16T06:03:43.345Z,1020.77
2017-03-16T06:04:43.351Z,1020.74
2017-03-16T06:05:43.407Z,1020.79
2017-03-16T06:06:43.361Z,1020.79
2017-03-16T06:07:43.367Z,1020.83
2017-03-16T06:08:43.375Z,1020.77
2017-03-16T06:09:43.380Z,1020.78
2017-03-16T06:10:43.382Z,1020.78
2017-03-16T06:11:43.389Z,1020.82
2017-03-16T06:12:43.446Z,1020.85
2017-03-16T06:13:43.402Z,1020.84
2017-03-16T06:14:43.404Z,1020.85
2017-03-16T06:15:43.411Z,1020.89
2017-03-16T06:16:43.417Z,1020.9
2017-03-16T06:17:43.473Z,1020.88
2017-03-16T06:18:43.428Z,1020.88
2017-03-16T06:19:43.483Z,1020.86
2017-03-16T06:20:43.439Z,1020.86
2017-03-16T06:21:43.445Z,1020.84
2017-03-16T06:22:43.451Z,1020.88
2017-03-16T06:23:43.506Z,1020.88
2017-03-16T06:24:43.461Z,1020.86
2017-03-16T06:25:43.519Z,1020.84
2017-03-16T06:26:43.523Z,1020.88
2017-03-16T06:27:43.479Z,1020.88
2017-03-16T06:28:43.483Z,1020.92
2017-03-16T06:29:43.488Z,1020.92
2017-03-16T06:30:43.545Z,1020.92
2017-03-16T06:31:43.500Z,1020.96
2017-03-16T06:32:43.506Z,1020.97
2017-03-16T06:33:43.562Z,1020.95
2017-03-16T06:34:43.518Z,1020.9
2017-03-16T06:35:43.522Z,1020.89
2017-03-16T06:36:43.528Z,1020.84
2017-03-16T06:37:43.534Z,1020.8
2017-03-16T06:38:43.541Z,1020.83
2017-03-16T06:39:43.546Z,1020.83
2017-03-16T06:40:43.651Z,1020.82
2017-03-16T06:41:43.556Z,1020.77
2017-03-16T06:42:43.562Z,1020.77
2017-03-16T06:43:43.568Z,1020.76
2017-03-16T06:44:43.575Z,1020.79
2017-03-16T06:45:43.629Z,1020.82
2017-03-16T06:46:43.585Z,1020.79
2017-03-16T06:47:43.594Z,1020.75
2017-03-16T06:48:43.652Z,1020.78
2017-03-16T06:49:43.603Z,1020.8
2017-03-16T06:50:43.608Z,1020.83
2017-03-16T06:51:43.614Z,1020.82
2017-03-16T06:52:43.621Z,1020.82
2017-03-16T06:53:43.624Z,1020.83
2017-03-16T06:54:43.630Z,1020.79
2017-03-16T06:55:43.638Z,1020.78
2017-03-16T06:56:43.692Z,1020.82
2017-03-16T06:57:43.698Z,1020.79
2017-03-16T06:58:43.651Z,1020.81
2017-03-16T06:59:43.659Z,1020.8
2017-03-16T07:00:43.665Z,1020.81
2017-03-16T07:01:43.670Z,1020.79
2017-03-16T07:02:43.676Z,1020.82
2017-03-16T07:03:43.682Z,1020.81
2017-03-16T07:04:43.688Z,1020.79
2017-03-16T07:05:43.693Z,1020.81
2017-03-16T07:06:43.700Z,1020.83
2017-03-16T07:07:43.705Z,1020.79
2017-03-16T07:08:43.759Z,1020.79
2017-03-16T07:09:43.715Z,1020.79
2017-03-16T07:10:43.771Z,1020.82
2017-03-16T07:11:43.727Z,1020.8
2017-03-16T07:12:44.834Z,1020.82
2017-03-16T07:13:43.788Z,1020.84
2017-03-16T07:14:43.744Z,1020.81
2017-03-16T07:15:43.749Z,1020.85
2017-03-16T07:16:43.755Z,1020.83
2017-03-16T07:17:43.761Z,1020.82
2017-03-16T07:18:43.818Z,1020.8
2017-03-16T07:19:43.772Z,1020.77
2017-03-16T07:20:43.778Z,1020.76
2017-03-16T07:21:43.785Z,1020.75
2017-03-16T07:22:43.788Z,1020.74
2017-03-16T07:23:43.795Z,1020.71
2017-03-16T07:24:43.801Z,1020.71
2017-03-16T07:25:43.807Z,1020.69
2017-03-16T07:26:43.812Z,1020.72
2017-03-16T07:27:43.819Z,1020.69
2017-03-16T07:28:43.823Z,1020.7
2017-03-16T07:29:43.830Z,1020.66
2017-03-16T07:30:43.885Z,1020.65
2017-03-16T07:31:43.841Z,1020.64
2017-03-16T07:32:43.847Z,1020.63
2017-03-16T07:33:43.853Z,1020.64
2017-03-16T07:34:43.858Z,1020.65
2017-03-16T07:35:43.864Z,1020.64
2017-03-16T07:36:43.922Z,1020.64
2017-03-16T07:37:43.876Z,1020.63
2017-03-16T07:38:43.882Z,1020.67
2017-03-16T07:39:43.889Z,1020.64
2017-03-16T07:40:43.894Z,1020.64
2017-03-16T07:41:43.949Z,1020.67
2017-03-16T07:42:43.907Z,1020.68
2017-03-16T07:43:43.912Z,1020.66
2017-03-16T07:44:43.919Z,1020.66
2017-03-16T07:45:43.975Z,1020.62
2017-03-16T07:46:43.979Z,1020.61
2017-03-16T07:47:44.136Z,1020.62
2017-03-16T07:48:43.941Z,1020.63
2017-03-16T07:49:43.948Z,1020.64
2017-03-16T07:50:43.955Z,1020.62
2017-03-16T07:51:43.962Z,1020.66
2017-03-16T07:52:45.065Z,1020.67
2017-03-16T07:53:44.022Z,1020.64
2017-03-16T07:54:44.029Z,1020.64
2017-03-16T07:55:44.035Z,1020.64
2017-03-16T07:56:43.992Z,1020.65
2017-03-16T07:57:43.996Z,1020.63
2017-03-16T07:58:44.005Z,1020.61
2017-03-16T07:59:44.009Z,1020.58
2017-03-16T08:00:44.018Z,1020.58
2017-03-16T08:01:44.072Z,1020.57
2017-03-16T08:02:44.080Z,1020.6
2017-03-16T08:03:44.085Z,1020.57
2017-03-16T08:04:44.091Z,1020.61
2017-03-16T08:05:44.047Z,1020.59
2017-03-16T08:06:44.054Z,1020.63
2017-03-16T08:07:44.111Z,1020.59
2017-03-16T08:08:44.116Z,1020.63
2017-03-16T08:09:44.074Z,1020.62
2017-03-16T08:10:44.078Z,1020.63
2017-03-16T08:11:44.085Z,1020.64
2017-03-16T08:12:44.094Z,1020.64
2017-03-16T08:13:44.098Z,1020.63
2017-03-16T08:14:44.154Z,1020.68
2017-03-16T08:15:44.112Z,1020.69
2017-03-16T08:16:44.118Z,1020.67
2017-03-16T08:17:44.124Z,1020.89
2017-03-16T08:18:44.131Z,1021.22
2017-03-16T08:19:44.138Z,1021.41
2017-03-16T08:20:44.146Z,1021.35
2017-03-16T08:21:44.205Z,1021.34
2017-03-16T08:22:44.164Z,1021.27
2017-03-16T08:23:44.221Z,1021.29
2017-03-16T08:24:44.181Z,1021.3
2017-03-16T08:25:44.187Z,1021.32
2017-03-16T08:26:44.248Z,1021.33
2017-03-16T08:27:44.208Z,1021.36
2017-03-16T08:28:44.266Z,1021.33
2017-03-16T08:29:44.277Z,1021.32
2017-03-16T08:30:44.288Z,1021.29
2017-03-16T08:31:44.297Z,1021.25
2017-03-16T08:32:44.307Z,1021.24
2017-03-16T08:33:44.267Z,1021.21
2017-03-16T08:34:44.327Z,1021.19
2017-03-16T08:35:44.289Z,1021.22
2017-03-16T08:36:44.349Z,1021.2
2017-03-16T08:37:44.308Z,1021.26
2017-03-16T08:38:44.319Z,1021.27
2017-03-16T08:39:44.332Z,1021.31
2017-03-16T08:40:44.343Z,1021.26
2017-03-16T08:41:44.355Z,1021.25
2017-03-16T08:42:44.365Z,1021.28
2017-03-16T08:43:44.377Z,1021.24
2017-03-16T08:44:44.387Z,1021.28
2017-03-16T08:45:44.400Z,1021.3
2017-03-16T08:46:44.461Z,1021.28
2017-03-16T08:47:44.420Z,1021.26
2017-03-16T08:48:44.481Z,1021.25
2017-03-16T08:49:44.495Z,1021.25
2017-03-16T08:50:44.504Z,1021.22
2017-03-16T08:51:44.467Z,1021.23
2017-03-16T08:52:44.477Z,1021.25
2017-03-16T08:53:44.491Z,1021.25
2017-03-16T08:54:44.550Z,1021.28
2017-03-16T08:55:44.562Z,1021.27
2017-03-16T08:56:44.523Z,1021.29
2017-03-16T08:57:44.534Z,1021.27
2017-03-16T08:58:44.547Z,1021.26
2017-03-16T08:59:44.557Z,1021.27
2017-03-16T09:00:44.571Z,1021.26
2017-03-16T09:01:44.582Z,1021.28
2017-03-16T09:02:44.644Z,1021.27
2017-03-16T09:03:44.605Z,1021.3
2017-03-16T09:04:44.667Z,1021.3
2017-03-16T09:05:44.629Z,1021.27
2017-03-16T09:06:44.691Z,1021.3
2017-03-16T09:07:44.653Z,1021.37
2017-03-16T09:08:44.664Z,1021.36
2017-03-16T09:09:44.676Z,1021.41
2017-03-16T09:10:44.688Z,1021.45
2017-03-16T09:11:44.749Z,1021.48
2017-03-16T09:12:44.712Z,1021.49
2017-03-16T09:13:44.723Z,1021.44
2017-03-16T09:14:44.735Z,1021.5
2017-03-16T09:15:44.747Z,1021.34
2017-03-16T09:16:44.758Z,1021.37
2017-03-16T09:17:44.770Z,1021.29
2017-03-16T09:18:44.831Z,1021.1
2017-03-16T09:19:44.792Z,1020.85
2017-03-16T09:20:44.852Z,1020.54
2017-03-16T09:21:44.811Z,1020.46
2017-03-16T09:22:44.822Z,1020.41
2017-03-16T09:23:44.829Z,1020.39
2017-03-16T09:24:44.838Z,1020.34
2017-03-16T09:25:44.900Z,1020.31
2017-03-16T09:26:44.859Z,1020.3
2017-03-16T09:27:44.867Z,1020.29
2017-03-16T09:28:44.876Z,1020.3
2017-03-16T09:29:44.935Z,1020.29
2017-03-16T09:30:44.943Z,1020.32
2017-03-16T09:31:44.901Z,1020.29
2017-03-16T09:32:44.910Z,1020.25
2017-03-16T09:33:44.967Z,1020.23
2017-03-16T09:34:44.925Z,1020.22
2017-03-16T09:35:44.983Z,1020.17
2017-03-16T09:36:44.992Z,1020.18
2017-03-16T09:37:44.998Z,1020.16
2017-03-16T09:38:45.007Z,1020.14
2017-03-16T09:39:44.965Z,1020.1
2017-03-16T09:40:45.024Z,1020.11
2017-03-16T09:41:44.980Z,1020.1
2017-03-16T09:42:44.987Z,1020.1
2017-03-16T09:43:45.046Z,1020.12
2017-03-16T09:44:45.052Z,1020.13
2017-03-16T09:45:45.009Z,1020.14
2017-03-16T09:46:45.018Z,1020.1
2017-03-16T09:47:45.025Z,1020.06
2017-03-16T09:48:45.032Z,1020.1
2017-03-16T09:49:45.038Z,1020.1
2017-03-16T09:50:45.046Z,1020.07
2017-03-16T09:51:45.104Z,1020.03
2017-03-16T09:52:45.110Z,1020.01
2017-03-16T09:53:45.119Z,1020
2017-03-16T09:54:45.075Z,1020.01
2017-03-16T09:55:45.083Z,1019.98
2017-03-16T09:56:45.087Z,1020.01
2017-03-16T09:57:45.097Z,1019.99
2017-03-16T09:58:45.104Z,1019.91
2017-03-16T09:59:45.159Z,1019.89
2017-03-16T10:00:45.117Z,1019.9
2017-03-16T10:01:45.125Z,1019.89
2017-03-16T10:02:45.130Z,1019.86
2017-03-16T10:03:45.136Z,1019.88
2017-03-16T10:04:45.193Z,1019.85
2017-03-16T10:05:45.149Z,1019.87
2017-03-16T10:06:45.157Z,1019.88
2017-03-16T10:07:45.162Z,1019.89
2017-03-16T10:08:45.169Z,1019.89
2017-03-16T10:09:45.177Z,1019.9
2017-03-16T10:10:45.184Z,1019.82
2017-03-16T10:11:45.190Z,1019.85
2017-03-16T10:12:45.198Z,1019.83
2017-03-16T10:13:45.205Z,1019.81
2017-03-16T10:14:45.261Z,1019.71
2017-03-16T10:15:45.215Z,1019.73
2017-03-16T10:16:45.273Z,1019.74
2017-03-16T10:17:45.231Z,1019.73
2017-03-16T10:18:45.236Z,1019.68
2017-03-16T10:19:45.243Z,1019.65
2017-03-16T10:20:45.250Z,1019.67
2017-03-16T10:21:45.257Z,1019.63
2017-03-16T10:22:45.262Z,1019.63
2017-03-16T10:23:45.318Z,1019.6
2017-03-16T10:24:45.277Z,1019.64
2017-03-16T10:25:45.282Z,1019.66
2017-03-16T10:26:45.288Z,1019.62
2017-03-16T10:27:45.294Z,1019.64
2017-03-16T10:28:45.302Z,1019.63
2017-03-16T10:29:45.309Z,1019.63
2017-03-16T10:30:45.364Z,1019.64
2017-03-16T10:31:45.371Z,1019.61
2017-03-16T10:32:45.329Z,1019.6
2017-03-16T10:33:45.335Z,1019.6
2017-03-16T10:34:45.340Z,1019.58
2017-03-16T10:35:45.347Z,1019.56
2017-03-16T10:36:45.403Z,1019.58
2017-03-16T10:37:45.361Z,1019.57
2017-03-16T10:38:45.367Z,1019.54
2017-03-16T10:39:45.373Z,1019.6
2017-03-16T10:40:45.379Z,1019.59
2017-03-16T10:41:45.387Z,1019.58
2017-03-16T10:42:45.392Z,1019.59
2017-03-16T10:43:45.398Z,1019.53
2017-03-16T10:44:45.455Z,1019.5
2017-03-16T10:45:45.411Z,1019.48
2017-03-16T10:46:45.417Z,1019.42
2017-03-16T10:47:45.422Z,1019.39
2017-03-16T10:48:45.429Z,1019.37
2017-03-16T10:49:45.436Z,1019.32
2017-03-16T10:50:45.441Z,1019.36
2017-03-16T10:51:45.446Z,1019.33
2017-03-16T10:52:45.452Z,1019.34
2017-03-16T10:53:45.506Z,1019.29
2017-03-16T10:54:45.465Z,1019.27
2017-03-16T10:55:45.519Z,1019.22
2017-03-16T10:56:45.476Z,1019.21
2017-03-16T10:57:45.482Z,1019.2
2017-03-16T10:58:45.489Z,1019.14
2017-03-16T10:59:45.493Z,1019.13
2017-03-16T11:00:45.499Z,1019.11
2017-03-16T11:01:45.508Z,1019.11
2017-03-16T11:02:45.512Z,1019.04
2017-03-16T11:03:45.568Z,1019.05
2017-03-16T11:04:45.526Z,1019.01
2017-03-16T11:05:45.533Z,1018.98
2017-03-16T11:06:45.537Z,1018.94
2017-03-16T11:07:45.545Z,1018.9
2017-03-16T11:08:45.550Z,1018.94
2017-03-16T11:09:45.555Z,1018.89
2017-03-16T11:10:45.562Z,1018.9
2017-03-16T11:11:45.566Z,1018.86
2017-03-16T11:12:45.625Z,1018.82
2017-03-16T11:13:45.580Z,1018.83
2017-03-16T11:14:45.586Z,1018.84
2017-03-16T11:15:45.643Z,1018.8
2017-03-16T11:16:45.648Z,1018.81
2017-03-16T11:17:45.604Z,1018.79
2017-03-16T11:18:45.611Z,1018.75
2017-03-16T11:19:45.616Z,1018.75
2017-03-16T11:20:45.671Z,1018.74
2017-03-16T11:21:46.078Z,1018.72
2017-03-16T11:22:45.635Z,1018.69
2017-03-16T11:23:45.641Z,1018.64
2017-03-16T11:24:45.645Z,1018.67
2017-03-16T11:25:45.652Z,1018.65
2017-03-16T11:26:45.657Z,1018.63
2017-03-16T11:27:45.663Z,1018.64
2017-03-16T11:28:45.673Z,1018.62
2017-03-16T11:29:45.731Z,1018.59
2017-03-16T11:30:45.685Z,1018.56
2017-03-16T11:31:45.989Z,1018.55
2017-03-16T11:32:45.745Z,1018.51
2017-03-16T11:33:45.751Z,1018.49
2017-03-16T11:34:45.708Z,1018.46
2017-03-16T11:35:45.763Z,1018.48
2017-03-16T11:36:45.719Z,1018.47
2017-03-16T11:37:46.025Z,1018.46
2017-03-16T11:38:45.730Z,1018.44
2017-03-16T11:39:45.738Z,1018.44
2017-03-16T11:40:45.792Z,1018.45
2017-03-16T11:41:45.748Z,1018.42
2017-03-16T11:42:45.753Z,1018.41
2017-03-16T11:43:45.762Z,1018.36
2017-03-16T11:44:45.766Z,1018.33
2017-03-16T11:45:45.823Z,1018.31
2017-03-16T11:46:45.778Z,1018.27
2017-03-16T11:47:45.785Z,1018.26
2017-03-16T11:48:45.791Z,1018.26
2017-03-16T11:49:45.795Z,1018.24
2017-03-16T11:50:45.803Z,1018.24
2017-03-16T11:51:45.860Z,1018.2
2017-03-16T11:52:45.867Z,1018.19
2017-03-16T11:53:45.822Z,1018.21
2017-03-16T11:54:45.827Z,1018.21
2017-03-16T11:55:45.884Z,1018.19
2017-03-16T11:56:45.841Z,1018.21
2017-03-16T11:57:45.896Z,1018.17
2017-03-16T11:58:45.904Z,1018.14
2017-03-16T11:59:45.858Z,1018.16
2017-03-16T12:00:45.915Z,1018.19
2017-03-16T12:01:45.870Z,1018.12
2017-03-16T12:02:45.877Z,1018.13
2017-03-16T12:03:45.935Z,1018.15
2017-03-16T12:04:45.889Z,1018.07
2017-03-16T12:05:45.895Z,1018.07
2017-03-16T12:06:45.950Z,1018.04
2017-03-16T12:07:45.908Z,1018
2017-03-16T12:08:45.913Z,1018.01